sensor_id;sensor_type;location;lat;lon;timestamp;pressure;altitude;pressure_sealevel;temperature;humidity
58471;BME280;44258;51.288;12.068;2023-06-14T00:02:21;100496.69;;;14.07;50.19
58471;BME280;44258;51.288;12.068;2023-06-14T00:05:09;100498.41;;;14.48;49.15
58471;BME280;44258;51.288;12.068;2023-06-14T00:07:59;100493.75;;;14.50;49.13
58471;BME280;44258;51.288;12.068;2023-06-14T00:10:51;100490.72;;;14.54;49.05
58471;BME280;44258;51.288;12.068;2023-06-14T00:13:39;100490.41;;;14.72;48.72
58471;BME280;44258;51.288;12.068;2023-06-14T00:16:27;100487.56;;;14.86;48.18
58471;BME280;44258;51.288;12.068;2023-06-14T00:19:14;100489.84;;;14.80;48.41
58471;BME280;44258;51.288;12.068;2023-06-14T00:22:05;100492.75;;;14.51;49.19
58471;BME280;44258;51.288;12.068;2023-06-14T00:24:54;100495.16;;;14.68;48.98
58471;BME280;44258;51.288;12.068;2023-06-14T00:27:44;100501.53;;;14.42;49.62
58471;BME280;44258;51.288;12.068;2023-06-14T00:30:33;100491.16;;;14.08;50.61
58471;BME280;44258;51.288;12.068;2023-06-14T00:33:22;100498.94;;;14.00;50.88
58471;BME280;44258;51.288;12.068;2023-06-14T00:36:11;100495.47;;;13.98;51.19
58471;BME280;44258;51.288;12.068;2023-06-14T00:38:59;100493.06;;;13.81;51.86
58471;BME280;44258;51.288;12.068;2023-06-14T00:41:46;100493.09;;;13.93;51.45
58471;BME280;44258;51.288;12.068;2023-06-14T00:44:33;100495.97;;;13.50;52.62
58471;BME280;44258;51.288;12.068;2023-06-14T00:47:24;100493.44;;;13.47;53.02
58471;BME280;44258;51.288;12.068;2023-06-14T00:50:13;100496.00;;;13.36;53.33
58471;BME280;44258;51.288;12.068;2023-06-14T00:53:00;100503.69;;;13.42;53.17
58471;BME280;44258;51.288;12.068;2023-06-14T00:55:53;100500.81;;;13.31;53.47
58471;BME280;44258;51.288;12.068;2023-06-14T00:58:42;100494.44;;;13.46;53.18
58471;BME280;44258;51.288;12.068;2023-06-14T01:01:42;100498.88;;;13.33;53.75
58471;BME280;44258;51.288;12.068;2023-06-14T01:04:29;100495.41;;;13.31;53.78
58471;BME280;44258;51.288;12.068;2023-06-14T01:07:41;100502.94;;;13.67;52.70
58471;BME280;44258;51.288;12.068;2023-06-14T01:10:40;100493.03;;;13.53;52.99
58471;BME280;44258;51.288;12.068;2023-06-14T01:13:43;100501.38;;;13.90;52.11
58471;BME280;44258;51.288;12.068;2023-06-14T01:16:34;100500.72;;;13.60;52.63
58471;BME280;44258;51.288;12.068;2023-06-14T01:19:25;100498.06;;;13.45;52.92
58471;BME280;44258;51.288;12.068;2023-06-14T01:22:16;100497.03;;;13.19;53.92
58471;BME280;44258;51.288;12.068;2023-06-14T01:25:08;100502.97;;;12.97;54.67
58471;BME280;44258;51.288;12.068;2023-06-14T01:28:01;100501.22;;;13.25;54.02
58471;BME280;44258;51.288;12.068;2023-06-14T01:30:52;100505.44;;;13.14;54.11
58471;BME280;44258;51.288;12.068;2023-06-14T01:33:40;100506.41;;;13.42;53.69
58471;BME280;44258;51.288;12.068;2023-06-14T01:36:29;100500.75;;;12.89;55.06
58471;BME280;44258;51.288;12.068;2023-06-14T01:39:17;100499.50;;;12.66;55.85
58471;BME280;44258;51.288;12.068;2023-06-14T01:42:10;100500.22;;;12.40;56.72
58471;BME280;44258;51.288;12.068;2023-06-14T01:44:59;100500.41;;;12.37;57.14
58471;BME280;44258;51.288;12.068;2023-06-14T01:47:49;100499.59;;;12.50;56.45
58471;BME280;44258;51.288;12.068;2023-06-14T01:50:37;100505.63;;;12.54;56.46
58471;BME280;44258;51.288;12.068;2023-06-14T01:53:33;100494.63;;;11.82;58.52
58471;BME280;44258;51.288;12.068;2023-06-14T01:56:21;100500.41;;;12.22;57.56
58471;BME280;44258;51.288;12.068;2023-06-14T01:59:12;100502.91;;;12.40;57.01
58471;BME280;44258;51.288;12.068;2023-06-14T02:01:59;100500.16;;;11.65;59.63
58471;BME280;44258;51.288;12.068;2023-06-14T02:04:46;100506.84;;;12.20;58.05
58471;BME280;44258;51.288;12.068;2023-06-14T02:07:36;100508.53;;;12.51;56.98
58471;BME280;44258;51.288;12.068;2023-06-14T02:10:26;100505.63;;;12.54;56.85
58471;BME280;44258;51.288;12.068;2023-06-14T02:13:13;100505.94;;;12.64;56.57
58471;BME280;44258;51.288;12.068;2023-06-14T02:16:01;100508.75;;;12.62;56.58
58471;BME280;44258;51.288;12.068;2023-06-14T02:18:48;100510.38;;;12.79;56.00
58471;BME280;44258;51.288;12.068;2023-06-14T02:21:40;100505.59;;;12.25;57.45
58471;BME280;44258;51.288;12.068;2023-06-14T02:24:27;100514.63;;;12.83;55.52
58471;BME280;44258;51.288;12.068;2023-06-14T02:27:18;100509.31;;;12.08;58.63
58471;BME280;44258;51.288;12.068;2023-06-14T02:30:06;100513.56;;;12.71;56.49
58471;BME280;44258;51.288;12.068;2023-06-14T02:32:55;100515.84;;;11.88;59.22
58471;BME280;44258;51.288;12.068;2023-06-14T02:35:44;100514.22;;;12.61;56.90
58471;BME280;44258;51.288;12.068;2023-06-14T02:38:32;100521.34;;;12.62;56.85
58471;BME280;44258;51.288;12.068;2023-06-14T02:41:23;100526.00;;;12.88;55.67
58471;BME280;44258;51.288;12.068;2023-06-14T02:44:13;100530.53;;;12.88;55.94
58471;BME280;44258;51.288;12.068;2023-06-14T02:47:04;100527.97;;;12.56;56.83
58471;BME280;44258;51.288;12.068;2023-06-14T02:50:00;100523.06;;;11.88;59.16
58471;BME280;44258;51.288;12.068;2023-06-14T02:52:48;100526.41;;;12.38;57.52
58471;BME280;44258;51.288;12.068;2023-06-14T02:55:44;100524.63;;;12.08;58.50
58471;BME280;44258;51.288;12.068;2023-06-14T02:58:43;100524.03;;;12.17;58.09
58471;BME280;44258;51.288;12.068;2023-06-14T03:01:36;100532.97;;;12.48;57.43
58471;BME280;44258;51.288;12.068;2023-06-14T03:04:26;100531.34;;;12.15;58.64
58471;BME280;44258;51.288;12.068;2023-06-14T03:07:16;100531.25;;;12.47;57.53
58471;BME280;44258;51.288;12.068;2023-06-14T03:10:06;100536.75;;;12.60;57.10
58471;BME280;44258;51.288;12.068;2023-06-14T03:12:53;100537.66;;;12.60;57.26
58471;BME280;44258;51.288;12.068;2023-06-14T03:15:48;100532.06;;;12.78;56.47
58471;BME280;44258;51.288;12.068;2023-06-14T03:18:38;100537.88;;;12.41;57.23
58471;BME280;44258;51.288;12.068;2023-06-14T03:21:25;100543.97;;;12.45;57.62
58471;BME280;44258;51.288;12.068;2023-06-14T03:24:15;100551.81;;;12.03;59.23
58471;BME280;44258;51.288;12.068;2023-06-14T03:27:08;100549.81;;;12.37;58.20
58471;BME280;44258;51.288;12.068;2023-06-14T03:29:59;100547.13;;;12.37;57.97
58471;BME280;44258;51.288;12.068;2023-06-14T03:32:49;100545.50;;;12.34;58.21
58471;BME280;44258;51.288;12.068;2023-06-14T03:35:41;100550.22;;;12.45;57.99
58471;BME280;44258;51.288;12.068;2023-06-14T03:38:28;100551.16;;;12.74;57.46
58471;BME280;44258;51.288;12.068;2023-06-14T03:41:20;100548.06;;;12.22;58.70
58471;BME280;44258;51.288;12.068;2023-06-14T03:44:10;100566.00;;;12.07;59.47
58471;BME280;44258;51.288;12.068;2023-06-14T03:46:57;100564.41;;;11.87;60.44
58471;BME280;44258;51.288;12.068;2023-06-14T03:49:44;100573.34;;;12.19;59.74
58471;BME280;44258;51.288;12.068;2023-06-14T03:52:33;100569.59;;;12.52;58.49
58471;BME280;44258;51.288;12.068;2023-06-14T03:55:20;100575.63;;;12.71;58.05
58471;BME280;44258;51.288;12.068;2023-06-14T03:58:09;100578.44;;;13.13;56.92
58471;BME280;44258;51.288;12.068;2023-06-14T04:00:56;100589.72;;;12.77;57.47
58471;BME280;44258;51.288;12.068;2023-06-14T04:03:46;100589.97;;;12.72;57.84
58471;BME280;44258;51.288;12.068;2023-06-14T04:06:35;100601.09;;;13.10;56.63
58471;BME280;44258;51.288;12.068;2023-06-14T04:09:28;100600.75;;;13.31;56.07
58471;BME280;44258;51.288;12.068;2023-06-14T04:12:19;100594.34;;;12.74;57.79
58471;BME280;44258;51.288;12.068;2023-06-14T04:15:09;100591.44;;;12.78;57.64
58471;BME280;44258;51.288;12.068;2023-06-14T04:17:56;100593.69;;;12.55;58.69
58471;BME280;44258;51.288;12.068;2023-06-14T04:20:44;100596.47;;;13.12;57.13
58471;BME280;44258;51.288;12.068;2023-06-14T04:23:34;100592.78;;;12.70;58.39
58471;BME280;44258;51.288;12.068;2023-06-14T04:26:27;100593.34;;;12.75;58.29
58471;BME280;44258;51.288;12.068;2023-06-14T04:29:15;100594.91;;;12.80;58.26
58471;BME280;44258;51.288;12.068;2023-06-14T04:32:08;100602.13;;;12.79;58.15
58471;BME280;44258;51.288;12.068;2023-06-14T04:34:56;100602.81;;;12.68;58.70
58471;BME280;44258;51.288;12.068;2023-06-14T04:37:43;100611.69;;;12.85;58.48
58471;BME280;44258;51.288;12.068;2023-06-14T04:40:30;100615.91;;;12.74;58.58
58471;BME280;44258;51.288;12.068;2023-06-14T04:43:21;100614.41;;;12.54;59.66
58471;BME280;44258;51.288;12.068;2023-06-14T04:46:13;100611.97;;;12.80;58.64
58471;BME280;44258;51.288;12.068;2023-06-14T04:49:03;100616.72;;;12.91;58.50
58471;BME280;44258;51.288;12.068;2023-06-14T04:51:59;100616.78;;;12.45;59.96
58471;BME280;44258;51.288;12.068;2023-06-14T04:54:47;100618.50;;;12.00;61.72
58471;BME280;44258;51.288;12.068;2023-06-14T04:57:34;100608.97;;;12.70;59.20
58471;BME280;44258;51.288;12.068;2023-06-14T05:00:21;100610.91;;;12.68;59.53
58471;BME280;44258;51.288;12.068;2023-06-14T05:03:09;100612.91;;;12.34;60.37
58471;BME280;44258;51.288;12.068;2023-06-14T05:06:03;100609.66;;;13.03;58.26
58471;BME280;44258;51.288;12.068;2023-06-14T05:08:53;100610.97;;;13.40;57.77
58471;BME280;44258;51.288;12.068;2023-06-14T05:11:44;100610.00;;;13.27;57.67
58471;BME280;44258;51.288;12.068;2023-06-14T05:14:34;100605.72;;;13.08;58.14
58471;BME280;44258;51.288;12.068;2023-06-14T05:17:27;100603.84;;;12.80;59.17
58471;BME280;44258;51.288;12.068;2023-06-14T05:20:14;100610.78;;;13.29;57.84
58471;BME280;44258;51.288;12.068;2023-06-14T05:23:02;100612.94;;;13.80;56.50
58471;BME280;44258;51.288;12.068;2023-06-14T05:25:50;100608.38;;;13.39;57.63
58471;BME280;44258;51.288;12.068;2023-06-14T05:28:39;100608.50;;;13.79;56.32
58471;BME280;44258;51.288;12.068;2023-06-14T05:31:37;100609.72;;;13.60;56.74
58471;BME280;44258;51.288;12.068;2023-06-14T05:34:24;100622.03;;;13.79;56.61
58471;BME280;44258;51.288;12.068;2023-06-14T05:37:10;100609.47;;;14.59;54.45
58471;BME280;44258;51.288;12.068;2023-06-14T05:40:00;100616.31;;;14.65;54.18
58471;BME280;44258;51.288;12.068;2023-06-14T05:42:52;100624.25;;;14.93;53.47
58471;BME280;44258;51.288;12.068;2023-06-14T05:45:41;100626.81;;;14.69;53.68
58471;BME280;44258;51.288;12.068;2023-06-14T05:48:30;100623.16;;;14.83;53.53
58471;BME280;44258;51.288;12.068;2023-06-14T05:51:17;100622.06;;;15.24;52.50
58471;BME280;44258;51.288;12.068;2023-06-14T05:54:05;100633.41;;;14.65;53.77
58471;BME280;44258;51.288;12.068;2023-06-14T05:56:56;100633.28;;;15.45;52.17
58471;BME280;44258;51.288;12.068;2023-06-14T05:59:46;100638.19;;;14.74;53.94
58471;BME280;44258;51.288;12.068;2023-06-14T06:02:33;100626.50;;;14.87;53.49
58471;BME280;44258;51.288;12.068;2023-06-14T06:05:35;100638.47;;;15.23;52.32
58471;BME280;44258;51.288;12.068;2023-06-14T06:08:22;100636.00;;;16.19;49.70
58471;BME280;44258;51.288;12.068;2023-06-14T06:11:09;100636.25;;;15.02;52.75
58471;BME280;44258;51.288;12.068;2023-06-14T06:14:01;100645.81;;;15.59;51.42
58471;BME280;44258;51.288;12.068;2023-06-14T06:16:48;100634.84;;;16.34;49.02
58471;BME280;44258;51.288;12.068;2023-06-14T06:19:35;100641.09;;;16.48;49.40
58471;BME280;44258;51.288;12.068;2023-06-14T06:22:24;100643.41;;;15.80;50.05
58471;BME280;44258;51.288;12.068;2023-06-14T06:25:11;100644.72;;;15.10;52.46
58471;BME280;44258;51.288;12.068;2023-06-14T06:28:00;100647.00;;;16.05;50.11
58471;BME280;44258;51.288;12.068;2023-06-14T06:30:49;100646.88;;;16.43;49.30
58471;BME280;44258;51.288;12.068;2023-06-14T06:33:36;100654.94;;;16.56;49.11
58471;BME280;44258;51.288;12.068;2023-06-14T06:36:27;100652.69;;;17.21;47.71
58471;BME280;44258;51.288;12.068;2023-06-14T06:39:19;100669.66;;;16.41;48.26
58471;BME280;44258;51.288;12.068;2023-06-14T06:42:06;100661.13;;;16.93;47.99
58471;BME280;44258;51.288;12.068;2023-06-14T06:44:53;100664.22;;;17.69;46.33
58471;BME280;44258;51.288;12.068;2023-06-14T06:47:44;100669.00;;;18.22;45.35
58471;BME280;44258;51.288;12.068;2023-06-14T06:50:31;100663.84;;;18.40;44.61
58471;BME280;44258;51.288;12.068;2023-06-14T06:53:18;100657.09;;;18.67;43.48
58471;BME280;44258;51.288;12.068;2023-06-14T06:56:08;100666.84;;;18.37;44.01
58471;BME280;44258;51.288;12.068;2023-06-14T06:58:58;100659.44;;;18.28;44.63
58471;BME280;44258;51.288;12.068;2023-06-14T07:01:45;100655.03;;;18.16;44.98
58471;BME280;44258;51.288;12.068;2023-06-14T07:04:33;100663.22;;;17.82;45.41
58471;BME280;44258;51.288;12.068;2023-06-14T07:07:20;100660.91;;;18.64;44.22
58471;BME280;44258;51.288;12.068;2023-06-14T07:10:07;100665.97;;;19.01;42.67
58471;BME280;44258;51.288;12.068;2023-06-14T07:12:54;100667.75;;;19.33;41.98
58471;BME280;44258;51.288;12.068;2023-06-14T07:15:41;100668.19;;;18.75;42.86
58471;BME280;44258;51.288;12.068;2023-06-14T07:18:28;100670.50;;;19.12;41.53
58471;BME280;44258;51.288;12.068;2023-06-14T07:21:17;100670.03;;;18.74;42.35
58471;BME280;44258;51.288;12.068;2023-06-14T07:24:05;100675.00;;;19.74;40.94
58471;BME280;44258;51.288;12.068;2023-06-14T07:26:53;100667.22;;;18.97;41.89
58471;BME280;44258;51.288;12.068;2023-06-14T07:29:41;100675.25;;;18.78;42.17
58471;BME280;44258;51.288;12.068;2023-06-14T07:32:28;100668.22;;;19.69;40.62
58471;BME280;44258;51.288;12.068;2023-06-14T07:35:15;100667.09;;;19.71;40.76
58471;BME280;44258;51.288;12.068;2023-06-14T07:38:07;100663.28;;;20.34;39.28
58471;BME280;44258;51.288;12.068;2023-06-14T07:40:57;100675.72;;;20.17;38.98
58471;BME280;44258;51.288;12.068;2023-06-14T07:43:43;100668.25;;;18.85;41.46
58471;BME280;44258;51.288;12.068;2023-06-14T07:46:39;100672.63;;;19.08;41.07
58471;BME280;44258;51.288;12.068;2023-06-14T07:49:27;100667.59;;;19.86;39.54
58471;BME280;44258;51.288;12.068;2023-06-14T07:52:16;100659.09;;;20.49;38.14
58471;BME280;44258;51.288;12.068;2023-06-14T07:55:05;100659.88;;;20.81;36.99
58471;BME280;44258;51.288;12.068;2023-06-14T07:58:01;100667.13;;;20.31;38.45
58471;BME280;44258;51.288;12.068;2023-06-14T08:00:48;100669.59;;;21.22;35.92
58471;BME280;44258;51.288;12.068;2023-06-14T08:03:35;100674.56;;;20.60;37.49
58471;BME280;44258;51.288;12.068;2023-06-14T08:06:25;100668.47;;;20.96;36.31
58471;BME280;44258;51.288;12.068;2023-06-14T08:09:19;100674.66;;;19.68;37.84
58471;BME280;44258;51.288;12.068;2023-06-14T08:12:08;100669.16;;;19.48;38.58
58471;BME280;44258;51.288;12.068;2023-06-14T08:14:55;100665.34;;;19.40;38.55
58471;BME280;44258;51.288;12.068;2023-06-14T08:17:42;100665.25;;;20.22;38.40
58471;BME280;44258;51.288;12.068;2023-06-14T08:20:29;100667.69;;;20.25;38.43
58471;BME280;44258;51.288;12.068;2023-06-14T08:23:17;100673.50;;;21.29;35.17
58471;BME280;44258;51.288;12.068;2023-06-14T08:26:06;100677.13;;;20.02;37.25
58471;BME280;44258;51.288;12.068;2023-06-14T08:28:54;100670.25;;;20.17;36.93
58471;BME280;44258;51.288;12.068;2023-06-14T08:31:41;100668.53;;;20.06;36.58
58471;BME280;44258;51.288;12.068;2023-06-14T08:34:28;100660.72;;;19.92;37.12
58471;BME280;44258;51.288;12.068;2023-06-14T08:37:18;100668.72;;;20.44;36.20
58471;BME280;44258;51.288;12.068;2023-06-14T08:40:07;100671.47;;;21.22;33.53
58471;BME280;44258;51.288;12.068;2023-06-14T08:43:00;100666.34;;;20.89;35.45
58471;BME280;44258;51.288;12.068;2023-06-14T08:45:53;100667.81;;;21.50;34.47
58471;BME280;44258;51.288;12.068;2023-06-14T08:48:44;100661.22;;;20.17;36.32
58471;BME280;44258;51.288;12.068;2023-06-14T08:51:38;100670.22;;;20.87;35.94
58471;BME280;44258;51.288;12.068;2023-06-14T08:54:28;100668.59;;;21.70;34.09
58471;BME280;44258;51.288;12.068;2023-06-14T08:57:26;100664.34;;;20.02;36.31
58471;BME280;44258;51.288;12.068;2023-06-14T09:00:16;100664.63;;;20.09;36.84
58471;BME280;44258;51.288;12.068;2023-06-14T09:03:08;100670.97;;;19.69;37.48
58471;BME280;44258;51.288;12.068;2023-06-14T09:05:59;100684.47;;;20.11;38.28
58471;BME280;44258;51.288;12.068;2023-06-14T09:08:46;100679.38;;;19.35;39.06
58471;BME280;44258;51.288;12.068;2023-06-14T09:11:35;100689.22;;;19.05;38.45
58471;BME280;44258;51.288;12.068;2023-06-14T09:14:23;100680.06;;;20.20;37.69
58471;BME280;44258;51.288;12.068;2023-06-14T09:17:20;100688.75;;;20.64;37.10
58471;BME280;44258;51.288;12.068;2023-06-14T09:20:10;100688.34;;;20.98;34.04
58471;BME280;44258;51.288;12.068;2023-06-14T09:23:00;100688.06;;;20.71;35.44
58471;BME280;44258;51.288;12.068;2023-06-14T09:25:54;100694.84;;;20.17;36.09
58471;BME280;44258;51.288;12.068;2023-06-14T09:28:41;100694.38;;;20.72;35.93
58471;BME280;44258;51.288;12.068;2023-06-14T09:31:29;100682.16;;;20.76;36.10
58471;BME280;44258;51.288;12.068;2023-06-14T09:34:17;100696.81;;;20.65;36.37
58471;BME280;44258;51.288;12.068;2023-06-14T09:37:06;100689.16;;;19.89;36.69
58471;BME280;44258;51.288;12.068;2023-06-14T09:39:56;100697.56;;;20.07;37.23
58471;BME280;44258;51.288;12.068;2023-06-14T09:42:43;100680.09;;;20.49;36.41
58471;BME280;44258;51.288;12.068;2023-06-14T09:45:33;100683.50;;;20.12;35.88
58471;BME280;44258;51.288;12.068;2023-06-14T09:48:21;100675.47;;;20.40;35.59
58471;BME280;44258;51.288;12.068;2023-06-14T09:51:09;100679.91;;;20.31;35.61
58471;BME280;44258;51.288;12.068;2023-06-14T09:53:59;100675.09;;;20.64;35.55
58471;BME280;44258;51.288;12.068;2023-06-14T09:56:48;100667.88;;;21.11;34.16
58471;BME280;44258;51.288;12.068;2023-06-14T09:59:42;100678.31;;;21.55;33.23
58471;BME280;44258;51.288;12.068;2023-06-14T10:02:37;100668.44;;;21.72;33.13
58471;BME280;44258;51.288;12.068;2023-06-14T10:05:28;100667.53;;;21.81;32.75
58471;BME280;44258;51.288;12.068;2023-06-14T10:08:18;100669.63;;;22.07;32.37
58471;BME280;44258;51.288;12.068;2023-06-14T10:11:07;100666.94;;;21.87;32.61
58471;BME280;44258;51.288;12.068;2023-06-14T10:13:58;100665.31;;;21.67;32.71
58471;BME280;44258;51.288;12.068;2023-06-14T10:16:55;100663.47;;;20.52;33.82
58471;BME280;44258;51.288;12.068;2023-06-14T10:19:48;100657.34;;;21.36;33.80
58471;BME280;44258;51.288;12.068;2023-06-14T10:22:43;100668.09;;;22.40;32.57
58471;BME280;44258;51.288;12.068;2023-06-14T10:25:37;100665.41;;;21.38;32.10
58471;BME280;44258;51.288;12.068;2023-06-14T10:28:26;100651.53;;;20.63;33.34
58471;BME280;44258;51.288;12.068;2023-06-14T10:31:17;100660.56;;;20.92;32.79
58471;BME280;44258;51.288;12.068;2023-06-14T10:34:04;100652.91;;;21.72;32.00
58471;BME280;44258;51.288;12.068;2023-06-14T10:37:13;100650.19;;;21.63;31.93
58471;BME280;44258;51.288;12.068;2023-06-14T10:40:00;100648.50;;;20.56;33.41
58471;BME280;44258;51.288;12.068;2023-06-14T10:42:51;100655.13;;;20.83;33.01
58471;BME280;44258;51.288;12.068;2023-06-14T10:46:13;100657.78;;;21.79;31.93
58471;BME280;44258;51.288;12.068;2023-06-14T10:49:03;100663.97;;;22.54;32.50
58471;BME280;44258;51.288;12.068;2023-06-14T10:51:53;100647.09;;;21.76;32.34
58471;BME280;44258;51.288;12.068;2023-06-14T10:55:06;100654.03;;;21.70;31.94
58471;BME280;44258;51.288;12.068;2023-06-14T10:57:54;100654.50;;;20.99;33.23
58471;BME280;44258;51.288;12.068;2023-06-14T11:00:46;100652.81;;;20.88;33.57
58471;BME280;44258;51.288;12.068;2023-06-14T11:03:50;100642.31;;;20.64;33.81
58471;BME280;44258;51.288;12.068;2023-06-14T11:06:50;100651.28;;;21.23;33.68
58471;BME280;44258;51.288;12.068;2023-06-14T11:09:54;100648.22;;;20.79;33.25
58471;BME280;44258;51.288;12.068;2023-06-14T11:12:48;100638.00;;;20.51;34.49
58471;BME280;44258;51.288;12.068;2023-06-14T11:15:37;100652.78;;;21.92;33.12
58471;BME280;44258;51.288;12.068;2023-06-14T11:18:37;100651.47;;;21.21;33.59
58471;BME280;44258;51.288;12.068;2023-06-14T11:21:27;100648.09;;;21.47;34.43
58471;BME280;44258;51.288;12.068;2023-06-14T11:24:20;100651.38;;;21.88;33.19
58471;BME280;44258;51.288;12.068;2023-06-14T11:27:07;100638.13;;;22.75;31.26
58471;BME280;44258;51.288;12.068;2023-06-14T11:29:54;100642.88;;;22.55;31.45
58471;BME280;44258;51.288;12.068;2023-06-14T11:32:46;100646.41;;;22.65;31.73
58471;BME280;44258;51.288;12.068;2023-06-14T11:35:40;100640.72;;;21.57;32.41
58471;BME280;44258;51.288;12.068;2023-06-14T11:38:28;100641.09;;;22.00;31.91
58471;BME280;44258;51.288;12.068;2023-06-14T11:41:15;100634.19;;;22.23;31.32
58471;BME280;44258;51.288;12.068;2023-06-14T11:44:05;100639.59;;;22.15;31.64
58471;BME280;44258;51.288;12.068;2023-06-14T11:46:52;100625.38;;;23.36;30.35
58471;BME280;44258;51.288;12.068;2023-06-14T11:49:39;100630.53;;;23.39;29.24
58471;BME280;44258;51.288;12.068;2023-06-14T11:52:28;100629.00;;;23.70;29.39
58471;BME280;44258;51.288;12.068;2023-06-14T11:55:19;100624.84;;;23.58;30.97
58471;BME280;44258;51.288;12.068;2023-06-14T11:58:06;100625.31;;;21.84;32.66
58471;BME280;44258;51.288;12.068;2023-06-14T12:00:53;100628.63;;;22.33;32.19
58471;BME280;44258;51.288;12.068;2023-06-14T12:03:53;100628.09;;;22.29;32.03
58471;BME280;44258;51.288;12.068;2023-06-14T12:06:41;100612.34;;;23.38;30.13
58471;BME280;44258;51.288;12.068;2023-06-14T12:09:31;100610.88;;;23.43;29.18
58471;BME280;44258;51.288;12.068;2023-06-14T12:12:18;100612.66;;;23.61;29.61
58471;BME280;44258;51.288;12.068;2023-06-14T12:15:15;100603.84;;;23.91;29.64
58471;BME280;44258;51.288;12.068;2023-06-14T12:18:05;100614.59;;;22.90;31.67
58471;BME280;44258;51.288;12.068;2023-06-14T12:20:58;100613.97;;;21.41;32.99
58471;BME280;44258;51.288;12.068;2023-06-14T12:23:49;100604.47;;;21.73;33.51
58471;BME280;44258;51.288;12.068;2023-06-14T12:26:40;100598.19;;;22.72;31.92
58471;BME280;44258;51.288;12.068;2023-06-14T12:29:27;100610.56;;;23.02;31.28
58471;BME280;44258;51.288;12.068;2023-06-14T12:32:14;100604.47;;;21.73;31.59
58471;BME280;44258;51.288;12.068;2023-06-14T12:35:01;100613.38;;;22.66;31.03
58471;BME280;44258;51.288;12.068;2023-06-14T12:37:48;100606.81;;;22.23;31.99
58471;BME280;44258;51.288;12.068;2023-06-14T12:40:35;100605.63;;;22.62;31.10
58471;BME280;44258;51.288;12.068;2023-06-14T12:43:24;100600.78;;;22.38;31.96
58471;BME280;44258;51.288;12.068;2023-06-14T12:46:11;100602.63;;;23.17;31.03
58471;BME280;44258;51.288;12.068;2023-06-14T12:49:01;100600.84;;;23.60;30.07
58471;BME280;44258;51.288;12.068;2023-06-14T12:51:48;100604.84;;;22.16;32.48
58471;BME280;44258;51.288;12.068;2023-06-14T12:54:37;100610.38;;;22.06;32.79
58471;BME280;44258;51.288;12.068;2023-06-14T12:57:25;100604.69;;;23.15;31.41
58471;BME280;44258;51.288;12.068;2023-06-14T13:00:18;100601.16;;;22.43;32.58
58471;BME280;44258;51.288;12.068;2023-06-14T13:03:07;100599.13;;;22.45;32.57
58471;BME280;44258;51.288;12.068;2023-06-14T13:05:54;100611.16;;;22.16;32.77
58471;BME280;44258;51.288;12.068;2023-06-14T13:08:41;100598.09;;;21.82;33.48
58471;BME280;44258;51.288;12.068;2023-06-14T13:11:28;100604.91;;;22.24;32.99
58471;BME280;44258;51.288;12.068;2023-06-14T13:14:17;100612.03;;;21.61;34.10
58471;BME280;44258;51.288;12.068;2023-06-14T13:17:11;100613.09;;;21.50;34.68
58471;BME280;44258;51.288;12.068;2023-06-14T13:19:58;100605.50;;;22.00;34.40
58471;BME280;44258;51.288;12.068;2023-06-14T13:22:50;100613.19;;;21.59;36.00
58471;BME280;44258;51.288;12.068;2023-06-14T13:25:41;100608.03;;;20.99;37.60
58471;BME280;44258;51.288;12.068;2023-06-14T13:28:28;100607.41;;;21.14;37.32
58471;BME280;44258;51.288;12.068;2023-06-14T13:31:15;100606.47;;;21.43;36.25
58471;BME280;44258;51.288;12.068;2023-06-14T13:34:08;100609.31;;;21.51;36.62
58471;BME280;44258;51.288;12.068;2023-06-14T13:36:57;100609.97;;;21.73;36.26
58471;BME280;44258;51.288;12.068;2023-06-14T13:39:44;100612.88;;;21.34;36.87
58471;BME280;44258;51.288;12.068;2023-06-14T13:42:34;100616.19;;;21.28;37.22
58471;BME280;44258;51.288;12.068;2023-06-14T13:45:21;100609.00;;;21.27;36.85
58471;BME280;44258;51.288;12.068;2023-06-14T13:48:11;100613.94;;;20.36;38.29
58471;BME280;44258;51.288;12.068;2023-06-14T13:51:11;100614.44;;;20.60;38.08
58471;BME280;44258;51.288;12.068;2023-06-14T13:54:01;100611.03;;;19.98;38.69
58471;BME280;44258;51.288;12.068;2023-06-14T13:56:48;100611.66;;;20.89;37.25
58471;BME280;44258;51.288;12.068;2023-06-14T13:59:39;100612.16;;;21.12;37.08
58471;BME280;44258;51.288;12.068;2023-06-14T14:02:27;100604.22;;;20.62;38.68
58471;BME280;44258;51.288;12.068;2023-06-14T14:05:16;100609.69;;;21.39;37.40
58471;BME280;44258;51.288;12.068;2023-06-14T14:08:04;100616.72;;;21.41;37.29
58471;BME280;44258;51.288;12.068;2023-06-14T14:10:51;100614.75;;;21.61;36.91
58471;BME280;44258;51.288;12.068;2023-06-14T14:13:38;100613.88;;;21.33;37.47
58471;BME280;44258;51.288;12.068;2023-06-14T14:16:28;100610.94;;;21.54;37.63
58471;BME280;44258;51.288;12.068;2023-06-14T14:19:15;100611.09;;;20.86;38.65
58471;BME280;44258;51.288;12.068;2023-06-14T14:22:04;100616.16;;;21.75;37.17
58471;BME280;44258;51.288;12.068;2023-06-14T14:24:52;100615.34;;;21.27;37.57
58471;BME280;44258;51.288;12.068;2023-06-14T14:27:39;100612.16;;;21.12;38.12
58471;BME280;44258;51.288;12.068;2023-06-14T14:30:28;100620.47;;;21.40;37.91
58471;BME280;44258;51.288;12.068;2023-06-14T14:33:15;100621.09;;;21.89;37.18
58471;BME280;44258;51.288;12.068;2023-06-14T14:36:03;100620.09;;;22.54;36.43
58471;BME280;44258;51.288;12.068;2023-06-14T14:38:52;100628.88;;;22.58;36.19